Amalgamated Press, 1958 Series
 

Series Timeline

See series details by issue (displays one row per issue with no gaps, by the regular issue sort order)

This page attempts to show how the issues in this series were published over time by laying them out in a timeline with alternately gray or white rows roughly corresponding to months. The correspondence is less accurate for bi-monthly, quarterly or annual books. Weekly or other more-frequent-than-monthly issues are simply grouped into the same color row by month.

The timeline feature depends on the key date field to order issues into a timeline. Please note that if the key dates are not filled out to correspond to the publication months of the issues, then the timeline will not be accurate.

Not all issues in this series have key dates, so not all can be sorted into a timeline. The following issues can be sorted:

Key Date Pub. Date On-sale date Number Indicia Publisher Pages Price Frequency
1958-10-18 18 October 1958 1958-10-13 32 The Amalgamated Press, Ltd. 32 ? 4 1/2d [0-0-4.5 GBP] every Monday
1958-11-00              
1958-12-00              
1959-01-00              
1959-02-00              
1959-03-07 March 7th, 1959 1959-03 52 The Amalgamated Press, Ltd. 28 4.5d [0-0-4.5 GBP] Every Monday
1959-03-28 28 March 1959 55 ? ?
1959-04-04 4 April 1959 56 ? ?
1959-04-11 11 April 1959 57 ? ?
1959-04-18 18 April 1959 58 ? ?
1959-04-25 25 April 1959 59 ? ?
1959-05-02 2 May 1959 60 ? ?
1959-05-09 9 May 1959 61 ? ?
1959-05-16 16 May 1959 62 ? ?
1959-05-23 23 May 1959 63 ? ?
1959-05-30 30 May 1959 64 ? ?
1959-06-06 6 June 1959 65 ? ?
1959-06-13 13 June 1959 66 ? ?
1959-06-20 20 June 1959 67 ? ?
1959-06-27 27 June 1959 68 ? ?
1959-07-04 4 July 1959 69 ? ?
1959-07-11 11 July 1959 70 ? ?
1959-07-18 18 July 1959 71 ? ?
1959-07-25 25 July 1959 72 ? ?
1959-08-01 1 August 1959 73 ? ?
1959-08-08 8 August 1959 74 ? ?
1959-08-15 15 August 1959 75 ? ?
1959-08-22 22 August 1959 76 ? ?
1959-08-29 29 August 1959 77 ? ?
1959-09-05 5 September 1959 78 ? ?
1959-09-12 12 September 1959 79 ? ?
1959-09-19 19 September 1959 19 September 1959 [80] ? ?
1959-09-26 26 September 1959 26 September 1959 [81] ? ?
1959-10-03 3 October 1959 3 October 1959 [82] ? ?
1959-10-10 10 October 1959 10 October 1959 [83] ? 5D [0-0-5 GBP] ?
1959-10-17 17 October 1959 17 October 1959 [84] ? ?
1959-10-24 24 October 1959 24 October 1959 [85] ? ?
1959-10-31 31 October 1959 31 October 1959 [86] ? ?
1959-11-07 7 November 1959 7 November 1959 [87] ? ?
1959-11-14 14 November 1959 14 November 1959 [88] ? ?
1959-11-21 21 November 1959 21 November 1959 [89] ? ?
1959-11-28 28 November 1959 28 November 1959 [90] ? ?
1959-12-05 5 December 1959 5 December 1959 [91] ? 5D [0-0-5 GBP] ?
1959-12-12 12 December 1959 12 December 1959 [92] ? ?
1959-12-19 19 December 1959 19 December 1959 [93] ? ?
1959-12-26 26 December 1959 26 December 1959 [94] ? ?
1960-01-02 2 January 1960 2 January 1960 [95] ? ?
1960-01-09 9 January 1960 9 January 1960 [96] ? ?
1960-01-16 16 January 1960 16 January 1960 [97] ? ?
1960-01-23 23 January 1960 23 January 1960 [98] ? ?
1960-01-30 30 January 1960 30 January 1960 [99] ? ?
1960-02-06 6 February 1960 6 February 1960 [100] ? ?
1960-02-13 13 February 1960 13 February 1960 [101] ? ?
1960-02-20 20 February 1960 20 February 1960 [102] ? ?
1960-02-27 27 February 1960 27 February 1960 [103] ? ?
1960-03-05 5 March 1960 5 March 1960 [104] ? ?
1960-03-12 12 March 1960 12 March 1960 [105] ? ?
1960-03-19 19 March 1960 19 March 1960 [106] ? ?
1960-03-26 26 March 1960 26 March 1960 [107] ? ?
1960-04-02 2 April 1960 2 April 1960 [108] ? ?
1960-04-09 9 April 1960 9 April 1960 [109] ? ?
1960-04-16 16 April 1960 16 April 1960 [110] ? ?
1960-04-23 23 April 1960 23 April 1960 [111] ? ?
1960-04-30 30 April 1960 30 April 1960 [112] ? ?
1960-05-07 7 May 1960 7 May 1960 [113] ? ?
1960-05-14 14 May 1960 14 May 1960 [114] ? ?
1960-05-21 21 May 1960 21 May 1960 [115] ? ?
1960-05-28 28 May 1960 28 May 1960 [116] ? ?
1960-06-04 4 June 1960 4 June 1960 [117] ? ?
1960-06-11 11 June 1960 11 June 1960 [118] ? ?
1960-06-18 18 June 1960 18 June 1960 [119] ? ?
1960-06-25 25 June 1960 25 June 1960 [120] ? ?
1960-07-02 2 July 1960 2 July 1960 [121] ? ?
1960-07-09 9 July 1960 9 July 1960 [122] ? ?
1960-07-16 16 July 1960 16 July 1960 [123] ? ?
1960-07-23 23 July 1960 23 July 1960 [124] ? ?
1960-07-30 30 July 1960 30 July 1960 [125] ? 5D [0-0-5 GBP] ?
1960-08-06 6 August 1960 6 August 1960 [126] ? ?
1960-08-13 13 August 1960 13 August 1960 [127] ? ?
1960-08-20 20 August 1960 20 August 1960 [128] ? ?
1960-08-27 27 August 1960 27 August 1960 [129] ? ?
1960-09-03 3 September 1960 3 September 1960 [130] ? ?
1960-09-10 10 September 1960 10 September 1960 [131] ? ?
1960-09-17 17 September 1960 17 September 1960 [132] ? ?
1960-09-24 24 September 1960 24 September 1960 [133] ? ?
1960-10-01 1 October 1960 1 October 1960 [134] ? ?
1960-10-08 8 October 1960 8 October 1960 [135] ? ?
1960-10-15 15 October 1960 15 October 1960 [136] ? ?
1960-10-22 22 October 1960 22 October 1960 [137] ? ?
1960-10-29 29 October 1960 29 October 1960 [138] ? ?
1960-11-05 5 November 1960 5 November 1960 [139] ? ?
1960-11-12 12 November 1960 12 November 1960 [140] ? ?
1960-11-19 19 November 1960 19 November 1960 [141] ? ?
1960-11-26 26 November 1960 26 November 1960 [142] ? ?
1960-12-03 3 December 1960 3 December 1960 [143] ? ?
1960-12-10 10 December 1960 10 December 1960 [144] ? ?
1960-12-17 17 December 1960 17 December 1960 [145] Fleetway Publications Ltd. 28 5D [0-0-5 GBP] published every Monday
1960-12-24 24 December 1960 24 December 1960 [146] ? ?
1960-12-31 31 December 1960 31 December 1960 [147] ? ?
1961-01-07 7 January 1961 7 January 1961 [148] ? ?
1961-01-14 14 January 1961 14 January 1961 [149] ? ?
1961-01-21 21 January 1961 21 January 1961 [150] ? ?
1961-01-28 28 January 1961 28 January 1961 [151] ? ?
1961-02-04 4 February 1961 4 February 1961 [152] ? ?
1961-02-11 11 February 1961 11 February 1961 [153] ? ?
1961-02-18 18 February 1961 18 February 1961 [154] ? ?
1961-02-25 25 February 1961 25 February 1961 [155] ? ?
1961-03-04 4 March 1961 4 March 1961 [156] ? ?
1961-03-11 11 March 1961 11 March 1961 [157] ? ?
1961-03-18 18 March 1961 18 March 1961 [158] ? ?
1961-03-25 25 March 1961 25 March 1961 [159] ? ?
1961-04-01 1 April 1961 1 April 1961 [160] ? ?
1961-04-08 8 April 1961 8 April 1961 [161] ? ?
1961-04-15 15 April 1961 15 April 1961 [162] ? ?
1961-04-22 22 April 1961 22 April 1961 [163] ? ?
1961-04-29 29 April 1961 29 April 1961 [164] ? ?
1961-05-06 6 May 1961 6 May 1961 [165] ? ?
1961-05-13 13 May 1961 13 May 1961 [166] ? ?
1961-05-20 20 May 1961 20 May 1961 [167] ? ?
1961-05-27 27 May 1961 27 May 1961 [168] ? ?
1961-06-03 3 June 1961 3 June 1961 [169] ? ?
1961-06-10 10 June 1961 10 June 1961 [170] ? ?
1961-06-17 17 June 1961 17 June 1961 [171] ? ?
1961-06-24 24 June 1961 24 June 1961 [172] ? ?
1961-07-01 1 July 1961 1 July 1961 [173] ? ?
1961-07-08 8 July 1961 8 July 1961 [174] Fleetway Publications Ltd. 28 5D [0-0-5 GBP] published every Monday
1961-07-15 15 July 1961 15 July 1961 [175] ? ?
1961-07-22 22 July 1961 22 July 1961 [176] ? ?
1961-07-29 29 July 1961 29 July 1961 [177] ? ?
1961-08-05 5 August 1961 5 August 1961 [178] ? ?
1961-08-12 12 August 1961 12 August 1961 [179] ? ?
1961-08-19 19 August 1961 19 August 1961 [180] ? ?
1961-08-26 26 August 1961 26 August 1961 [181] ? ?
1961-09-02 2 September 1961 2 September 1961 [182] ? ?
1961-09-09 9 September 1961 9 September 1961 [183] ? ?
1961-09-16 16 September 1961 16 September 1961 [184] ? ?
1961-09-23 23 September 1961 23 September 1961 [185] ? ?
1961-09-30 30 September 1961 30 September 1961 [186] ? ?
1961-10-07 7 October 1961 7 October 1961 [187] ? ?
1961-10-14 14 October 1961 14 October 1961 [188] ? ?
1961-10-21 21 October 1961 21 October 1961 [189] ? ?
1961-10-28 28 October 1961 28 October 1961 [190] ? ?
1961-11-04 4 November 1961 4 November 1961 [191] ? ?
1961-11-11 11 November 1961 11 November 1961 [192] ? ?
1961-11-18 18 November 1961 18 November 1961 [193] ? ?
1961-11-25 25 November 1961 25 November 1961 [194] ? ?
1961-12-02 2 December 1961 2 December 1961 [195] ? ?
1961-12-09 9 December 1961 9 December 1961 [196] ? ?
1961-12-16 16 December 1961 16 December 1961 [197] ? ?
1961-12-23 23 December 1961 23 December 1961 [198] ? ?
1961-12-30 30 December 1961 30 December 1961 [199] ? ?
1962-01-06 6 January 1962 6 January 1962 [200] ? ?
1962-01-13 13 January 1962 13 January 1962 [201] ? ?
1962-01-20 20 January 1962 20 January 1962 [202] ? ?
1962-01-27 27 January 1962 27 January 1962 [203] ? ?
1962-02-03 3 February 1962 3 February 1962 [204] ? ?
1962-02-10 10 February 1962 10 February 1962 [205] ? ?
1962-02-17 17 February 1962 17 February 1962 [206] ? ?
1962-02-24 24 February 1962 24 February 1962 [207] ? ?
1962-03-03 3 March 1962 3 March 1962 [208] ? ?
1962-03-10 10 March 1962 10 March 1962 [209] ? ?
1962-03-17 17 March 1962 17 March 1962 [210] ? ?
1962-03-24 24 March 1962 24 March 1962 [211] ? ?
1962-03-31 31 March 1962 31 March 1962 [212] ? ?
1962-04-07 7 April 1962 7 April 1962 [213] ? ?
1962-04-14 14 April 1962 14 April 1962 [214] ? ?
1962-04-21 21 April 1962 21 April 1962 [215] ? ?
1962-04-28 28 April 1962 28 April 1962 [216] ? ?
1962-05-05 5 May 1962 5 May 1962 [217] ? ?
1962-05-12 12 May 1962 12 May 1962 [218] ? ?
1962-05-19 19 May 1962 19 May 1962 [219] ? ?
1962-05-26 26 May 1962 26 May 1962 [220] ? ?
1962-06-02 2 June 1962 2 June 1962 [221] ? ?
1962-06-09 9 June 1962 9 June 1962 [222] ? ?
1962-06-16 16 June 1962 16 June 1962 [223] ? ?
1962-06-23 23 June 1962 23 June 1962 [224] ? ?
1962-06-30 30 June 1962 30 June 1962 [225] ? ?
1962-07-07 7 July 1962 7 July 1962 [226] ? ?
1962-07-14 14 July 1962 14 July 1962 [227] ? 6D [0-0-6 GBP] ?
1962-07-21 21 July 1962 21 July 1962 [228] ? ?
1962-07-28 28 July 1962 28 July 1962 [229] ? ?
1962-08-04 4 August 1962 4 August 1962 [230] ? ?
1962-08-11 11 August 1962 11 August 1962 [231] ? ?
1962-08-18 18 August 1962 18 August 1962 [232] ? ?
1962-08-25 25 August 1962 25 August 1962 [233] ? ?
1962-09-01 1 September 1962 1 September 1962 [234] ? ?
1962-09-08 8 September 1962 8 September 1962 [235] ? ?
1962-09-15 15 September 1962 15 September 1962 [236] ? ?
1962-09-22 22 September 1962 22 September 1962 [237] ? ?
1962-09-29 29 September 1962 29 September 1962 [238] ? ?
1962-10-06 6 October 1962 6 October 1962 [239] ? ?
1962-10-13 13 October 1962 13 October 1962 [240] ? ?
1962-10-20 20 October 1962 20 October 1962 [241] ? ?
1962-10-27 27 October 1962 27 October 1962 [242] ? ?
1962-11-03 3 November 1962 3 November 1962 [243] ? ?
1962-11-10 10 November 1962 10 November 1962 [244] ? ?
1962-11-17 17 November 1962 17 November 1962 [245] ? ?
1962-11-24 24 November 1962 24 November 1962 [246] ? ?
1962-12-01 1 December 1962 1 December 1962 [247] ? ?
1962-12-08 8 December 1962 8 December 1962 [248] ? ?
1962-12-15 15 December 1962 15 December 1962 [249] ? ?
1962-12-22 22 December 1962 22 December 1962 [250] ? ?
1962-12-29 29 December 1962 29 December 1962 [251] ? ?
1963-01-05 5 January 1963 5 January 1963 [252] ? ?
1963-01-12 12 January 1963 12 January 1963 [253] ? ?
1963-01-19 19 January 1963 19 January 1963 [254] ? ?
1963-01-26 26 January 1963 26 January 1963 [255] ? ?
1963-02-02 2 February 1963 2 February 1963 [256] ? ?
1963-02-09 9 February 1963 9 February 1963 [257] ? ?
1963-02-16 16 February 1963 16 February 1963 [258] ? ?
1963-02-23 23 February 1963 23 February 1963 [259] ? ?
1963-03-02 2 March 1963 2 March 1963 [260] ? ?
1963-03-09 9 March 1963 9 March 1963 [261] ? ?
1963-03-16 16 March 1963 16 March 1963 [262] Fleetway Publications Ltd. 28 6d [0-0-6 GBP] published every Monday
1963-03-23 23 March 1963 23 March 1963 [263] ? ?
1963-03-30 30 March 1963 30 March 1963 [264] ? ?
1963-04-06 6 April 1963 6 April 1963 [265] ? ?
1963-04-13 13 April 1963 13 April 1963 [266] ? ?
1963-04-20 20 April 1963 20 April 1963 [267] ? ?
1963-04-27 27 April 1963 27 April 1963 [268] ? ?
1963-05-04 4 May 1963 4 May 1963 [269] ? ?
1963-05-11 11 May 1963 11 May 1963 [270] ? ?
1963-05-18 18 May 1963 18 May 1963 [271] ? ?
1963-05-25 25 May 1963 25 May 1963 [272] ? ?
1963-06-01 1 June 1963 1 June 1963 [273] ? ?
1963-06-08 8 June 1963 8 June 1963 [274] ? ?
1963-06-15 15 June 1963 15 June 1963 [275] ? ?
1963-06-22 22 June 1963 22 June 1963 [276] ? ?
1963-06-29 29 June 1963 29 June 1963 [277] ? ?
1963-07-06 6 July 1963 6 July 1963 [278] ? ?
1963-07-13 13 July 1963 13 July 1963 [279] ? ?
1963-07-20 20 July 1963 20 July 1963 [280] ? ?
1963-07-27 27 July 1963 27 July 1963 [281] ? ?
1963-08-03 3 August 1963 3 August 1963 [282] ? ?
1963-08-10 10 August 1963 10 August 1963 [283] ? ?
1963-08-17 17 August 1963 17 August 1963 [284] ? ?
1963-08-24 24 August 1963 24 August 1963 [285] ? ?
1963-08-31 31 August 1963 31 August 1963 [286] ? ?
1963-09-07 7 September 1963 7 September 1963 [287] ? ?
1963-09-14 14 September 1963 14 September 1963 [288] ? ?

These issues have no key date and cannot be placed in a timeline:

Key Date Pub. Date On-sale date Number Indicia Publisher Pages Price Frequency
1 ? ?
2 ? ?
3 ? ?
4 ? ?
5 ? ?
6 ? ?
7 ? ?
8 ? ?
9 ? ?
10 ? ?
11 ? ?
12 ? ?
13 ? ?
14 ? ?
15 ? ?
16 ? ?
17 ? ?
18 ? ?
19 ? ?
20 ? ?
21 ? ?
22 ? ?
23 ? ?
24 ? ?
25 ? ?
26 ? ?
27 ? ?
28 ? ?
29 ? ?
30 ? ?
31 ? ?
33 ? ?
34 ? ?
35 ? ?
36 ? ?
37 ? ?
38 ? ?
39 ? ?
40 ? ?
41 ? ?
42 ? ?
43 ? ?
44 ? ?
45 ? ?
46 ? ?
47 ? ?
48 ? ?
49 ? ?
50 ? ?
51 ? ?
53 ? ?
54 ? ?